createdAt,value
2022-10-31T00:01:17.808Z,10.57
2022-10-31T00:04:20.296Z,11.37
2022-10-31T00:07:22.786Z,10.83
2022-10-31T00:10:25.248Z,11.10
2022-10-31T00:13:27.743Z,11.00
2022-10-31T00:16:31.797Z,11.13
2022-10-31T00:19:34.296Z,11.07
2022-10-31T00:22:36.777Z,10.97
2022-10-31T00:25:40.805Z,10.60
2022-10-31T00:28:43.359Z,9.57
2022-10-31T00:31:47.209Z,10.10
2022-10-31T00:34:49.708Z,10.60
2022-10-31T00:37:53.828Z,10.67
2022-10-31T00:40:56.330Z,9.67
2022-10-31T00:43:58.914Z,9.50
2022-10-31T00:47:02.729Z,9.73
2022-10-31T00:50:06.259Z,9.60
2022-10-31T00:53:08.852Z,10.60
2022-10-31T00:56:11.483Z,10.33
2022-10-31T00:59:13.976Z,9.90
2022-10-31T01:02:17.930Z,9.70
2022-10-31T01:05:20.896Z,9.63
2022-10-31T01:08:23.398Z,9.80
2022-10-31T01:11:25.914Z,10.63
2022-10-31T01:14:28.396Z,10.60
2022-10-31T01:17:32.234Z,10.87
2022-10-31T01:20:34.719Z,12.10
2022-10-31T01:23:38.039Z,11.23
2022-10-31T01:26:40.532Z,10.10
2022-10-31T01:29:43.012Z,9.53
2022-10-31T01:32:46.809Z,11.27
2022-10-31T01:35:49.283Z,9.73
2022-10-31T01:38:54.185Z,8.90
2022-10-31T01:41:56.804Z,9.57
2022-10-31T01:45:02.060Z,9.40
2022-10-31T01:48:06.267Z,10.57
2022-10-31T01:51:09.786Z,9.13
2022-10-31T01:54:17.268Z,10.23
2022-10-31T01:57:22.104Z,9.17
2022-10-31T02:00:24.788Z,9.83
2022-10-31T02:03:29.262Z,10.20
2022-10-31T02:06:37.759Z,10.20
2022-10-31T02:09:42.710Z,9.33
2022-10-31T02:12:46.732Z,9.80
2022-10-31T02:15:52.252Z,10.57
2022-10-31T02:18:57.255Z,10.10
2022-10-31T02:22:07.933Z,10.40
2022-10-31T02:25:23.815Z,10.30
2022-10-31T02:28:39.517Z,10.23
2022-10-31T02:31:48.448Z,10.80
2022-10-31T02:35:00.282Z,10.40
2022-10-31T02:38:12.031Z,10.33
2022-10-31T02:41:21.864Z,10.70
2022-10-31T02:44:30.807Z,11.27
2022-10-31T02:47:38.472Z,11.50
2022-10-31T02:50:44.470Z,12.43
2022-10-31T02:53:46.986Z,11.70
2022-10-31T02:56:53.037Z,12.73
2022-10-31T03:00:01.801Z,12.80
2022-10-31T03:03:14.340Z,12.53
2022-10-31T03:06:22.506Z,13.97
2022-10-31T03:09:29.082Z,13.37
2022-10-31T03:12:43.111Z,14.27
2022-10-31T03:15:53.067Z,14.37
2022-10-31T03:19:01.799Z,13.70
2022-10-31T03:22:09.250Z,14.27
2022-10-31T03:25:13.972Z,14.20
2022-10-31T03:28:20.861Z,14.47
2022-10-31T03:31:28.664Z,12.67
2022-10-31T03:34:33.721Z,13.60
2022-10-31T03:37:38.411Z,15.27
2022-10-31T03:40:45.525Z,14.97
2022-10-31T03:43:53.923Z,15.53
2022-10-31T03:46:56.585Z,15.23
2022-10-31T03:50:00.473Z,14.77
2022-10-31T03:53:09.487Z,14.93
2022-10-31T03:56:19.129Z,15.53
2022-10-31T03:59:28.180Z,17.60
2022-10-31T04:02:35.650Z,14.87
2022-10-31T04:05:40.768Z,17.00
2022-10-31T04:08:50.441Z,17.17
2022-10-31T04:11:56.229Z,16.83
2022-10-31T04:15:00.798Z,16.93
2022-10-31T04:18:05.863Z,17.60
2022-10-31T04:21:10.551Z,16.67
2022-10-31T04:24:13.401Z,16.77
2022-10-31T04:27:15.868Z,17.57
2022-10-31T04:30:18.432Z,18.03
2022-10-31T04:33:20.940Z,18.10
2022-10-31T04:36:24.785Z,17.13
2022-10-31T04:39:27.252Z,15.80
2022-10-31T04:42:31.310Z,15.87
2022-10-31T04:45:33.790Z,16.93
2022-10-31T04:48:36.308Z,16.90
2022-10-31T04:51:40.111Z,16.97
2022-10-31T04:54:42.595Z,16.77
2022-10-31T04:57:46.421Z,16.70
2022-10-31T05:00:49.010Z,16.73
2022-10-31T05:03:51.538Z,19.07
2022-10-31T05:06:55.359Z,18.50
2022-10-31T05:09:57.824Z,17.07
2022-10-31T05:13:02.536Z,18.87
2022-10-31T05:16:05.773Z,17.90
2022-10-31T05:19:08.263Z,17.50
2022-10-31T05:22:12.059Z,19.10
2022-10-31T05:25:14.924Z,18.60
2022-10-31T05:28:17.410Z,19.80
2022-10-31T05:31:19.887Z,18.97
2022-10-31T05:34:22.376Z,19.97
2022-10-31T05:37:26.172Z,21.30
2022-10-31T05:40:29.900Z,20.03
2022-10-31T05:43:32.384Z,20.67
2022-10-31T05:49:42.304Z,21.47
2022-10-31T05:52:46.136Z,22.00
2022-10-31T05:55:48.666Z,22.20
2022-10-31T05:58:51.131Z,23.30
2022-10-31T06:01:53.663Z,23.67
2022-10-31T06:04:56.333Z,22.80
2022-10-31T06:08:01.051Z,21.60
2022-10-31T06:11:03.883Z,22.93
2022-10-31T06:14:07.067Z,23.40
2022-10-31T06:17:10.602Z,24.57
2022-10-31T06:20:13.363Z,27.10
2022-10-31T06:23:17.173Z,26.30
2022-10-31T06:26:19.661Z,26.77
2022-10-31T06:29:22.207Z,28.73
2022-10-31T06:32:24.669Z,28.70
2022-10-31T06:35:27.156Z,28.73
2022-10-31T06:38:31.237Z,27.70
2022-10-31T06:41:33.731Z,30.87
2022-10-31T06:44:36.232Z,27.73
2022-10-31T06:47:50.980Z,27.50
2022-10-31T06:50:59.858Z,25.40
2022-10-31T06:54:03.745Z,25.53
2022-10-31T06:57:06.260Z,29.17
2022-10-31T07:00:10.309Z,27.43
2022-10-31T07:03:14.754Z,27.13
2022-10-31T07:06:17.409Z,28.53
2022-10-31T07:09:21.365Z,27.10
2022-10-31T07:12:23.871Z,27.53
2022-10-31T07:15:26.706Z,26.07
2022-10-31T07:18:29.820Z,26.80
2022-10-31T07:21:32.301Z,26.97
2022-10-31T07:24:36.160Z,29.27
2022-10-31T07:27:41.717Z,27.60
2022-10-31T07:30:45.409Z,27.10
2022-10-31T07:33:47.895Z,26.60
2022-10-31T07:36:52.924Z,26.17
2022-10-31T07:39:56.750Z,28.67
2022-10-31T07:42:59.840Z,26.60
2022-10-31T07:46:02.325Z,28.10
2022-10-31T07:49:04.920Z,27.20
2022-10-31T07:52:07.436Z,26.63
2022-10-31T07:55:11.930Z,26.40
2022-10-31T07:58:16.449Z,26.87
2022-10-31T08:01:18.926Z,26.23
2022-10-31T08:04:21.419Z,27.23
2022-10-31T08:07:24.050Z,25.17
2022-10-31T08:10:29.376Z,25.27
2022-10-31T08:13:31.878Z,24.60
2022-10-31T08:16:34.355Z,26.10
2022-10-31T08:19:36.827Z,24.43
2022-10-31T08:22:42.812Z,23.47
2022-10-31T08:25:48.552Z,22.13
2022-10-31T08:28:51.484Z,22.70
2022-10-31T08:31:53.980Z,20.63
2022-10-31T08:34:56.452Z,20.90
2022-10-31T08:38:00.089Z,18.30
2022-10-31T08:41:04.241Z,19.47
2022-10-31T08:44:06.695Z,20.03
2022-10-31T08:47:09.200Z,18.63
2022-10-31T08:50:11.674Z,19.50
2022-10-31T08:53:17.175Z,22.63
2022-10-31T08:56:21.060Z,21.83
2022-10-31T08:59:23.728Z,25.37
2022-10-31T09:02:26.439Z,25.67
2022-10-31T09:05:29.084Z,24.07
2022-10-31T09:08:32.661Z,24.17
2022-10-31T09:11:36.471Z,23.30
2022-10-31T09:14:38.952Z,22.77
2022-10-31T09:17:41.436Z,22.47
2022-10-31T09:20:45.572Z,23.93
2022-10-31T09:23:48.060Z,23.00
2022-10-31T09:26:51.890Z,21.03
2022-10-31T09:29:54.359Z,21.20
2022-10-31T09:32:57.498Z,21.90
2022-10-31T09:36:00.461Z,21.37
2022-10-31T09:39:03.135Z,20.00
2022-10-31T09:42:25.579Z,18.10
2022-10-31T09:45:33.191Z,18.80
2022-10-31T09:48:45.087Z,19.93
2022-10-31T09:51:53.831Z,21.40
2022-10-31T09:55:00.889Z,21.13
2022-10-31T09:58:05.395Z,20.13
2022-10-31T10:01:14.154Z,20.73
2022-10-31T10:04:32.305Z,19.10
2022-10-31T10:07:45.407Z,20.13
2022-10-31T10:10:53.172Z,21.07
2022-10-31T10:14:20.816Z,19.90
2022-10-31T10:17:34.993Z,20.90
2022-10-31T10:20:45.683Z,22.10
2022-10-31T10:23:58.443Z,20.07
2022-10-31T10:27:15.797Z,18.47
2022-10-31T10:30:25.529Z,19.27
2022-10-31T10:33:33.648Z,18.70
2022-10-31T10:36:43.895Z,18.90
2022-10-31T10:39:50.675Z,17.17
2022-10-31T10:43:22.900Z,17.20
2022-10-31T10:46:53.871Z,18.67
2022-10-31T10:49:56.735Z,17.90
2022-10-31T10:53:09.119Z,17.47
2022-10-31T10:56:19.509Z,18.30
2022-10-31T10:59:23.962Z,16.20
2022-10-31T11:02:29.536Z,16.60
2022-10-31T11:05:37.927Z,16.70
2022-10-31T11:08:40.423Z,17.07
2022-10-31T11:11:43.156Z,17.23
2022-10-31T11:14:48.832Z,16.43
2022-10-31T11:17:54.384Z,16.50
2022-10-31T11:20:59.134Z,16.47
2022-10-31T11:24:05.447Z,16.90
2022-10-31T11:27:16.193Z,16.83
2022-10-31T11:30:18.702Z,15.87
2022-10-31T11:33:28.599Z,16.00
2022-10-31T11:36:33.008Z,15.90
2022-10-31T11:39:43.662Z,16.37
2022-10-31T11:42:47.072Z,16.53
2022-10-31T11:45:49.873Z,15.10
2022-10-31T11:48:57.352Z,15.77
2022-10-31T11:52:03.194Z,16.00
2022-10-31T11:55:18.078Z,15.20
2022-10-31T11:58:25.143Z,15.67
2022-10-31T12:01:29.846Z,15.50
2022-10-31T12:04:45.520Z,14.97
2022-10-31T12:07:48.432Z,14.67
2022-10-31T12:11:03.197Z,14.93
2022-10-31T12:14:19.119Z,13.70
2022-10-31T12:17:25.576Z,14.47
2022-10-31T12:20:42.425Z,14.10
2022-10-31T12:23:57.313Z,14.47
2022-10-31T12:27:11.973Z,14.43
2022-10-31T12:30:20.742Z,13.57
2022-10-31T12:33:36.450Z,14.10
2022-10-31T12:36:51.763Z,13.57
2022-10-31T12:40:07.568Z,13.57
2022-10-31T12:43:26.194Z,13.40
2022-10-31T12:46:54.570Z,12.47
2022-10-31T12:50:07.924Z,13.17
2022-10-31T12:53:24.615Z,12.93
2022-10-31T12:56:39.055Z,11.80
2022-10-31T12:59:47.305Z,11.97
2022-10-31T13:02:54.882Z,13.17
2022-10-31T13:06:01.499Z,12.73
2022-10-31T13:09:09.951Z,11.23
2022-10-31T13:12:17.071Z,12.20
2022-10-31T13:15:22.676Z,12.60
2022-10-31T13:18:31.256Z,11.73
2022-10-31T13:21:39.393Z,11.53
2022-10-31T13:24:49.060Z,11.07
2022-10-31T13:27:56.097Z,11.03
2022-10-31T13:30:58.600Z,10.90
2022-10-31T13:34:05.527Z,10.07
2022-10-31T13:37:17.675Z,9.50
2022-10-31T13:40:34.862Z,8.73
2022-10-31T13:43:56.823Z,9.70
2022-10-31T13:47:00.113Z,12.00
2022-10-31T13:50:08.436Z,10.50
2022-10-31T13:53:20.465Z,12.30
2022-10-31T13:56:27.237Z,11.37
2022-10-31T13:59:32.820Z,12.17
2022-10-31T14:02:37.675Z,11.73
2022-10-31T14:05:40.176Z,12.17
2022-10-31T14:08:49.539Z,12.83
2022-10-31T14:11:54.628Z,12.13
2022-10-31T14:15:07.046Z,12.80
2022-10-31T14:18:24.490Z,12.20
2022-10-31T14:21:32.271Z,11.60
2022-10-31T14:24:38.636Z,13.13
2022-10-31T14:27:52.895Z,12.63
2022-10-31T14:30:56.901Z,13.17
2022-10-31T14:34:00.191Z,12.63
2022-10-31T14:37:38.600Z,12.47
2022-10-31T14:40:53.933Z,12.83
2022-10-31T14:44:21.523Z,11.83
2022-10-31T14:47:34.893Z,12.03
2022-10-31T14:50:47.754Z,12.23
2022-10-31T14:53:52.405Z,12.33
2022-10-31T14:56:58.395Z,11.83
2022-10-31T15:00:06.263Z,11.93
2022-10-31T15:03:16.569Z,11.53
2022-10-31T15:06:22.696Z,11.60
2022-10-31T15:09:27.269Z,12.03
2022-10-31T15:12:32.102Z,12.87
2022-10-31T15:15:36.122Z,11.10
2022-10-31T15:18:46.460Z,11.03
2022-10-31T15:21:49.133Z,11.53
2022-10-31T15:24:56.944Z,9.90
2022-10-31T15:27:59.809Z,11.20
2022-10-31T15:31:04.464Z,11.20
2022-10-31T15:34:16.899Z,10.13
2022-10-31T15:37:21.384Z,9.63
2022-10-31T15:40:27.664Z,10.40
2022-10-31T15:43:37.365Z,10.37
2022-10-31T15:46:41.296Z,11.90
2022-10-31T15:49:50.859Z,12.13
2022-10-31T15:52:53.575Z,12.40
2022-10-31T15:55:58.355Z,12.23
2022-10-31T15:59:02.800Z,13.07
2022-10-31T16:02:13.670Z,12.10
2022-10-31T16:05:19.275Z,12.27
2022-10-31T16:08:27.475Z,12.73
2022-10-31T16:11:36.053Z,12.87
2022-10-31T16:14:42.143Z,11.70
2022-10-31T16:17:48.473Z,13.87
2022-10-31T16:20:53.586Z,13.07
2022-10-31T16:24:03.805Z,11.90
2022-10-31T16:27:19.509Z,12.57
2022-10-31T16:30:42.787Z,12.27
2022-10-31T16:33:50.790Z,11.80
2022-10-31T16:36:53.307Z,11.47
2022-10-31T16:39:55.786Z,12.00
2022-10-31T16:43:00.158Z,12.60
2022-10-31T16:46:02.979Z,12.73
2022-10-31T16:49:06.848Z,12.10
2022-10-31T16:52:09.439Z,12.97
2022-10-31T16:55:15.988Z,13.17
2022-10-31T16:58:23.398Z,13.90
2022-10-31T17:01:26.072Z,14.90
2022-10-31T17:04:30.437Z,14.27
2022-10-31T17:07:32.921Z,13.23
2022-10-31T17:10:36.139Z,14.97
2022-10-31T17:13:38.627Z,13.93
2022-10-31T17:16:41.136Z,13.57
2022-10-31T17:19:44.947Z,14.23
2022-10-31T17:22:47.464Z,14.00
2022-10-31T17:25:49.965Z,16.00
2022-10-31T17:28:52.457Z,16.07
2022-10-31T17:31:54.995Z,14.70
2022-10-31T17:34:58.825Z,14.33
2022-10-31T17:38:01.410Z,14.70
2022-10-31T17:41:10.008Z,14.93
2022-10-31T17:44:14.000Z,20.57
2022-10-31T17:47:16.531Z,18.43
2022-10-31T17:50:22.248Z,16.93
2022-10-31T17:53:24.721Z,15.33
2022-10-31T17:56:27.559Z,13.90
2022-10-31T17:59:30.208Z,14.03
2022-10-31T18:02:32.836Z,14.53
2022-10-31T18:05:37.350Z,13.53
2022-10-31T18:08:41.481Z,14.20
2022-10-31T18:11:44.616Z,15.20
2022-10-31T18:14:48.552Z,15.70
2022-10-31T18:17:51.281Z,16.30
2022-10-31T18:20:58.248Z,14.17
2022-10-31T18:24:02.836Z,15.43
2022-10-31T18:27:06.067Z,15.33
2022-10-31T18:30:09.673Z,14.33
2022-10-31T18:33:12.154Z,15.07
2022-10-31T18:36:16.033Z,15.60
2022-10-31T18:39:18.514Z,15.80
2022-10-31T18:42:21.006Z,15.30
2022-10-31T18:45:33.884Z,15.33
2022-10-31T18:48:46.519Z,14.77
2022-10-31T18:51:50.517Z,15.40
2022-10-31T18:54:53.030Z,14.20
2022-10-31T18:57:55.529Z,14.30
2022-10-31T19:00:58.063Z,15.23
2022-10-31T19:04:00.644Z,15.07
2022-10-31T19:07:04.496Z,15.87
2022-10-31T19:10:07.411Z,15.07
2022-10-31T19:13:10.004Z,15.20
2022-10-31T19:16:14.878Z,15.73
2022-10-31T19:19:17.487Z,15.53
2022-10-31T19:22:21.365Z,16.43
2022-10-31T19:25:23.943Z,16.03
2022-10-31T19:28:26.592Z,17.53
2022-10-31T19:31:29.060Z,15.90
2022-10-31T19:34:31.570Z,16.30
2022-10-31T19:37:35.497Z,17.33
2022-10-31T19:40:38.200Z,17.97
2022-10-31T19:43:40.822Z,18.30
2022-10-31T19:46:53.411Z,17.70
2022-10-31T19:49:56.494Z,17.67
2022-10-31T19:53:01.635Z,18.70
2022-10-31T19:56:04.908Z,19.37
2022-10-31T19:59:07.955Z,18.27
2022-10-31T20:02:19.536Z,19.17
2022-10-31T20:05:22.517Z,18.50
2022-10-31T20:08:26.369Z,18.70
2022-10-31T20:11:29.578Z,18.03
2022-10-31T20:14:32.384Z,19.17
2022-10-31T20:17:34.865Z,17.03
2022-10-31T20:20:37.560Z,17.23
2022-10-31T20:23:42.240Z,18.80
2022-10-31T20:26:44.764Z,18.20
2022-10-31T20:29:47.248Z,18.07
2022-10-31T20:32:50.204Z,17.47
2022-10-31T20:35:53.094Z,19.53
2022-10-31T20:38:56.910Z,19.70
2022-10-31T20:41:59.396Z,19.23
2022-10-31T20:45:02.212Z,18.47
2022-10-31T20:48:05.082Z,19.07
2022-10-31T20:51:10.940Z,18.67
2022-10-31T20:54:15.345Z,18.80
2022-10-31T20:57:17.890Z,19.87
2022-10-31T21:00:20.450Z,19.70
2022-10-31T21:03:23.280Z,18.80
2022-10-31T21:06:26.264Z,18.93
2022-10-31T21:09:30.125Z,20.53
2022-10-31T21:12:32.745Z,20.00
2022-10-31T21:15:35.278Z,19.73
2022-10-31T21:18:38.951Z,19.50
2022-10-31T21:21:41.880Z,19.67
2022-10-31T21:24:45.812Z,20.33
2022-10-31T21:27:48.526Z,19.33
2022-10-31T21:30:52.511Z,21.13
2022-10-31T21:33:55.157Z,22.27
2022-10-31T21:36:57.670Z,21.40
2022-10-31T21:40:01.499Z,21.10
2022-10-31T21:43:04.265Z,21.97
2022-10-31T21:46:08.483Z,21.63
2022-10-31T21:49:11.352Z,21.10
2022-10-31T21:52:14.154Z,23.13
2022-10-31T21:55:17.102Z,21.73
2022-10-31T21:58:19.836Z,22.73
2022-10-31T22:01:23.974Z,24.50
2022-10-31T22:04:26.857Z,23.23
2022-10-31T22:07:29.396Z,21.90
2022-10-31T22:10:34.484Z,22.53
2022-10-31T22:13:37.550Z,21.57
2022-10-31T22:16:40.543Z,21.30
2022-10-31T22:19:43.075Z,21.80
2022-10-31T22:22:47.648Z,20.87
2022-10-31T22:25:51.460Z,20.53
2022-10-31T22:28:57.800Z,21.30
2022-10-31T22:32:01.989Z,21.07
2022-10-31T22:35:05.179Z,19.77
2022-10-31T22:38:07.707Z,18.80
2022-10-31T22:41:12.964Z,18.33
2022-10-31T22:44:15.460Z,19.37
2022-10-31T22:47:17.924Z,19.33
2022-10-31T22:50:20.483Z,17.97
2022-10-31T22:53:22.990Z,19.10
2022-10-31T22:56:29.546Z,18.37
2022-10-31T22:59:32.277Z,19.73
2022-10-31T23:02:35.096Z,18.43
2022-10-31T23:05:37.649Z,18.23
2022-10-31T23:08:40.801Z,19.03
2022-10-31T23:11:45.154Z,19.33
2022-10-31T23:14:46.671Z,18.20
2022-10-31T23:17:49.165Z,16.57
2022-10-31T23:20:52.415Z,18.00
2022-10-31T23:23:54.917Z,17.20
2022-10-31T23:27:09.291Z,16.77
2022-10-31T23:30:12.073Z,16.03
2022-10-31T23:33:14.568Z,14.30
2022-10-31T23:36:17.310Z,15.70
2022-10-31T23:39:22.746Z,16.20
2022-10-31T23:42:29.672Z,16.07
2022-10-31T23:45:32.256Z,15.83
2022-10-31T23:48:34.808Z,16.10
2022-10-31T23:51:37.406Z,14.93
2022-10-31T23:54:40.549Z,14.63
2022-10-31T23:57:44.404Z,15.40
